Time;durP1;ratioP1;P1;durP2;ratioP2;P2;SDS_P1;SDS_P2;PMS_P1;PMS_P2;Temp;Humidity;BMP_temperature;BMP_pressure;BME280_temperature;BME280_humidity;BME280_pressure;Samples;Min_cycle;Max_cycle;Signal;HPM_P1;HPM_P2
2022/02/06 00:01:34;;;;;;;4.50;1.63;;;;;;;1.85;66.51;96808.72;5052506;28;20041;-79
2022/02/06 00:04:01;;;;;;;4.18;1.60;;;;;;;1.81;66.33;96801.16;5051538;28;20049;-80
2022/02/06 00:06:31;;;;;;;5.07;2.03;;;;;;;1.81;66.44;96795.78;5051821;28;20041;-81
2022/02/06 00:08:58;;;;;;;5.68;1.75;;;;;;;1.75;66.28;96791.44;5052707;28;20061;-81
2022/02/06 00:11:25;;;;;;;7.57;2.25;;;;;;;1.74;66.55;96784.44;5052496;28;20041;-81
2022/02/06 00:13:51;;;;;;;6.90;2.17;;;;;;;1.73;66.77;96782.81;5053391;28;20045;-81
2022/02/06 00:16:18;;;;;;;4.93;1.75;;;;;;;1.71;66.36;96784.94;5052564;28;20053;-78
2022/02/06 00:18:45;;;;;;;5.55;1.88;;;;;;;1.74;66.52;96783.63;5053214;28;20049;-79
2022/02/06 00:21:15;;;;;;;6.80;1.63;;;;;;;1.75;66.03;96783.38;5052689;28;20045;-80
2022/02/06 00:23:45;;;;;;;5.93;1.73;;;;;;;1.78;66.04;96774.84;5053140;28;20064;-79
2022/02/06 00:26:19;;;;;;;5.53;1.80;;;;;;;1.79;65.94;96772.94;5052671;28;20079;-81
2022/02/06 00:28:57;;;;;;;6.93;1.75;;;;;;;1.80;66.02;96770.00;5053275;28;20432;-79
2022/02/06 00:31:33;;;;;;;7.75;1.83;;;;;;;1.81;65.87;96776.19;5051774;28;20047;-79
2022/02/06 00:34:29;;;;;;;5.40;1.50;;;;;;;1.80;66.15;96767.31;5051894;28;20450;-79
2022/02/06 00:39:37;;;;;;;5.25;1.40;;;;;;;1.74;66.32;96768.34;5052095;28;20051;-80
2022/02/06 00:42:04;;;;;;;3.40;1.73;;;;;;;1.73;66.44;96769.41;5051109;28;20051;-78
2022/02/06 00:44:30;;;;;;;3.53;1.52;;;;;;;1.74;66.11;96765.66;5051749;28;20041;-79
2022/02/06 00:47:02;;;;;;;3.47;1.50;;;;;;;1.76;65.75;96766.19;5050646;28;20048;-79
2022/02/06 00:49:29;;;;;;;7.70;1.60;;;;;;;1.75;65.74;96764.59;5055285;28;20041;-79
2022/02/06 00:52:03;;;;;;;4.53;1.65;;;;;;;1.75;65.78;96759.22;5055506;28;20199;-79
2022/02/06 00:54:29;;;;;;;;;;;;;;;1.75;65.78;96764.59;5055876;28;20041;-81
2022/02/06 00:56:57;;;;;;;3.55;1.10;;;;;;;1.71;66.16;96762.66;5055884;28;19921;-79
2022/02/06 00:59:23;;;;;;;3.58;1.25;;;;;;;1.73;66.04;96758.66;5055119;28;20045;-82
2022/02/06 01:01:50;;;;;;;2.60;1.10;;;;;;;1.71;66.21;96749.22;5055244;28;20128;-79
2022/02/06 01:04:17;;;;;;;4.10;1.40;;;;;;;1.72;66.17;96749.00;5055471;28;20049;-82
2022/02/06 01:06:44;;;;;;;4.00;1.77;;;;;;;1.73;66.08;96750.59;5055258;28;20048;-78
2022/02/06 01:09:11;;;;;;;4.07;1.52;;;;;;;1.74;66.33;96754.91;5054955;28;20053;-79
2022/02/06 01:11:38;;;;;;;3.55;1.60;;;;;;;1.74;66.36;96752.22;5055260;28;20037;-79
2022/02/06 01:14:13;;;;;;;4.18;1.20;;;;;;;1.74;66.77;96752.22;5054738;28;20072;-79
2022/02/06 01:16:46;;;;;;;5.45;1.50;;;;;;;1.70;67.09;96752.97;5055280;28;20055;-79
2022/02/06 01:19:17;;;;;;;6.65;1.60;;;;;;;1.68;66.99;96750.56;5054416;28;20045;-79
2022/02/06 01:21:50;;;;;;;5.38;2.10;;;;;;;1.60;66.97;96750.97;5054512;28;20591;-79
2022/02/06 01:24:19;;;;;;;6.20;1.95;;;;;;;1.51;67.02;96747.94;5054661;28;20045;-78
2022/02/06 01:26:48;;;;;;;3.85;1.80;;;;;;;1.49;67.59;96760.78;5054793;28;20064;-80
2022/02/06 01:29:26;;;;;;;4.57;2.22;;;;;;;1.42;67.48;96748.63;5054199;28;20488;-79
2022/02/06 01:31:58;;;;;;;3.85;2.00;;;;;;;1.30;67.89;96748.72;5054725;28;20040;-79
2022/02/06 01:34:26;;;;;;;4.22;2.10;;;;;;;1.22;68.31;96747.31;5052716;28;20384;-80
2022/02/06 01:37:06;;;;;;;2.95;1.77;;;;;;;1.20;68.50;96743.25;5054584;28;20045;-80
2022/02/06 01:39:49;;;;;;;3.85;1.73;;;;;;;1.15;69.00;96744.00;5054335;28;20555;-80
2022/02/06 01:42:25;;;;;;;3.20;1.63;;;;;;;1.11;69.24;96737.50;5054139;28;20125;-80
2022/02/06 01:45:06;;;;;;;4.47;2.03;;;;;;;1.11;69.56;96728.66;5053898;28;20056;-79
2022/02/06 02:01:45;;;;;;;4.82;1.33;;;;;;;1.06;69.66;96718.66;5053367;28;20537;-80
2022/02/06 02:04:16;;;;;;;3.28;1.40;;;;;;;1.05;69.67;96719.72;5052787;28;20483;-79
2022/02/06 02:12:27;;;;;;;6.18;1.80;;;;;;;1.10;69.79;96710.91;5044074;28;20553;-78
2022/02/06 02:18:05;;;;;;;5.07;1.70;;;;;;;1.05;70.01;96709.00;5052733;28;20561;-79
2022/02/06 02:21:02;;;;;;;5.72;1.70;;;;;;;1.03;70.09;96703.06;5052684;28;20045;-79
2022/02/06 02:23:46;;;;;;;4.40;1.60;;;;;;;1.03;70.24;96703.06;5052651;28;20037;-79
2022/02/06 02:26:44;;;;;;;3.70;1.65;;;;;;;1.03;70.20;96698.50;5052320;28;20392;-79
2022/02/06 02:32:33;;;;;;;4.75;1.25;;;;;;;1.10;69.66;96701.03;5052696;28;20060;-79
2022/02/06 02:43:46;;;;;;;4.68;1.50;;;;;;;1.16;69.52;96675.88;5009114;28;20056;-80
2022/02/06 02:46:12;;;;;;;3.22;1.20;;;;;;;1.15;69.52;96674.28;5032038;28;20152;-79
2022/02/06 02:48:41;;;;;;;7.13;1.70;;;;;;;1.17;69.71;96674.00;5032661;28;20076;-79
2022/02/06 02:51:09;;;;;;;3.58;1.50;;;;;;;1.20;69.63;96668.13;5032431;28;20054;-78
2022/02/06 02:53:41;;;;;;;8.25;1.65;;;;;;;1.21;69.41;96667.91;5032854;28;20046;-79
2022/02/06 02:56:21;;;;;;;3.45;1.42;;;;;;;1.24;69.39;96662.00;5032249;28;20108;-78
2022/02/06 02:58:59;;;;;;;4.50;1.60;;;;;;;1.27;69.35;96656.16;5032916;28;20140;-79
2022/02/06 03:01:31;;;;;;;4.70;1.50;;;;;;;1.29;69.12;96656.72;5032197;28;20053;-81
2022/02/06 03:03:57;;;;;;;4.00;1.70;;;;;;;1.30;69.16;96658.34;5049738;28;20078;-81
2022/02/06 03:06:24;;;;;;;4.72;1.38;;;;;;;1.33;69.20;96651.66;5052021;28;20045;-79
2022/02/06 03:08:54;;;;;;;5.85;1.60;;;;;;;1.35;69.17;96646.84;5052620;28;20702;-81
2022/02/06 03:11:20;;;;;;;6.82;1.45;;;;;;;1.33;69.36;96648.97;5051660;28;20049;-80
2022/02/06 03:13:54;;;;;;;6.03;1.20;;;;;;;1.33;69.57;96637.44;5052390;28;20045;-80
2022/02/06 03:16:24;;;;;;;6.13;1.30;;;;;;;1.30;69.88;96638.72;5052054;28;20086;-81
2022/02/06 03:19:06;;;;;;;7.65;1.58;;;;;;;1.29;70.17;96637.94;5052761;28;20083;-81
2022/02/06 03:21:33;;;;;;;8.13;1.70;;;;;;;1.33;70.14;96643.59;5052382;28;20049;-79
2022/02/06 03:24:21;;;;;;;5.50;1.60;;;;;;;1.37;70.13;96638.56;5052079;28;20067;-80
2022/02/06 03:26:49;;;;;;;6.47;1.38;;;;;;;1.40;70.26;96632.66;5052266;28;20052;-79
2022/02/06 03:29:17;;;;;;;7.30;1.35;;;;;;;1.40;70.45;96624.63;5051652;28;20044;-79
2022/02/06 03:31:44;;;;;;;8.05;1.67;;;;;;;1.45;70.26;96630.03;5052250;28;20052;-79
2022/02/06 03:34:10;;;;;;;4.68;1.30;;;;;;;1.43;70.49;96621.44;5050777;28;20056;-80
2022/02/06 03:36:37;;;;;;;7.15;1.40;;;;;;;1.50;70.53;96622.84;5051804;28;20041;-78
2022/02/06 03:39:06;;;;;;;9.07;1.30;;;;;;;1.54;70.35;96629.34;5051333;28;20051;-80
2022/02/06 03:41:43;;;;;;;3.95;1.30;;;;;;;1.53;70.21;96618.88;5045735;28;20048;-79
2022/02/06 03:44:20;;;;;;;4.60;1.50;;;;;;;1.54;70.27;96612.44;5051247;28;20124;-78
2022/02/06 03:46:57;;;;;;;2.63;1.20;;;;;;;1.51;70.02;96607.56;5051290;28;20049;-79
2022/02/06 03:49:30;;;;;;;4.13;1.40;;;;;;;1.48;70.08;96613.44;5051175;28;20142;-79
2022/02/06 03:51:56;;;;;;;4.00;1.20;;;;;;;1.40;70.43;96611.22;5051603;28;20048;-80
2022/02/06 03:54:24;;;;;;;4.32;1.10;;;;;;;1.37;70.57;96601.00;5050674;28;20393;-79
2022/02/06 03:56:52;;;;;;;3.95;1.10;;;;;;;1.38;70.61;96591.88;5051179;28;20045;-79
2022/02/06 03:59:19;;;;;;;4.55;2.03;;;;;;;1.32;70.57;96592.91;5050351;28;20099;-78
2022/02/06 04:01:45;;;;;;;4.50;1.33;;;;;;;1.33;70.96;96591.81;5051251;28;20053;-80
2022/02/06 04:04:12;;;;;;;5.70;1.05;;;;;;;1.34;70.96;96585.41;5050659;28;20056;-79
2022/02/06 04:06:38;;;;;;;3.88;1.13;;;;;;;1.34;71.07;96580.03;5050944;28;20044;-80
2022/02/06 04:09:09;;;;;;;2.55;1.05;;;;;;;1.39;71.11;96572.03;5050894;28;20540;-79
2022/02/06 04:11:47;;;;;;;7.15;1.20;;;;;;;1.44;70.87;96577.44;5050977;28;20041;-79
2022/02/06 04:14:22;;;;;;;3.75;1.20;;;;;;;1.48;70.97;96570.50;5050705;28;20456;-79
2022/02/06 04:16:52;;;;;;;4.53;1.23;;;;;;;1.50;70.62;96563.00;5051312;28;20139;-79
2022/02/06 04:19:21;;;;;;;3.72;0.98;;;;;;;1.50;70.72;96557.63;5050532;28;20135;-79
2022/02/06 04:21:49;;;;;;;4.53;1.20;;;;;;;1.57;70.23;96552.88;5050944;28;20038;-79
2022/02/06 04:24:16;;;;;;;4.05;1.10;;;;;;;1.59;70.21;96555.31;5051194;28;20060;-79
2022/02/06 04:26:44;;;;;;;5.45;1.45;;;;;;;1.63;70.19;96541.13;5051513;28;20119;-80
2022/02/06 04:29:10;;;;;;;4.45;1.40;;;;;;;1.63;70.02;96541.13;5049860;28;20677;-80
2022/02/06 04:31:39;;;;;;;4.93;1.23;;;;;;;1.67;69.62;96536.88;5051228;28;20048;-79
2022/02/06 04:34:06;;;;;;;3.03;0.93;;;;;;;1.69;69.72;96534.72;5051279;28;20060;-79
2022/02/06 04:36:39;;;;;;;2.45;0.90;;;;;;;1.70;69.75;96530.97;5051365;28;20044;-79
2022/02/06 04:39:17;;;;;;;5.05;1.20;;;;;;;1.75;69.47;96528.31;5051831;28;20072;-79
2022/02/06 04:41:57;;;;;;;3.60;1.05;;;;;;;1.78;69.45;96518.97;5052979;28;20124;-79
2022/02/06 04:55:50;;;;;;;2.53;1.10;;;;;;;1.82;69.29;96510.09;5051034;28;20076;-79
2022/02/06 05:15:09;;;;;;;2.28;1.02;;;;;;;2.07;68.65;96487.16;5051614;28;20068;-79
2022/02/06 05:18:10;;;;;;;2.72;1.25;;;;;;;2.13;68.51;96486.13;5051418;28;20120;-79
2022/02/06 05:21:19;;;;;;;4.25;1.20;;;;;;;2.17;68.44;96481.84;5051424;28;20045;-78
2022/02/06 05:24:17;;;;;;;4.50;1.00;;;;;;;2.22;68.05;96481.88;5051679;28;20037;-79
2022/02/06 05:26:55;;;;;;;3.63;1.08;;;;;;;2.27;67.75;96487.28;5051049;28;20047;-79
2022/02/06 05:29:29;;;;;;;2.72;1.23;;;;;;;2.30;67.65;96486.75;5050181;28;20049;-79
2022/02/06 05:32:11;;;;;;;5.97;0.98;;;;;;;2.31;67.84;96488.38;5051556;28;20045;-79
2022/02/06 05:34:38;;;;;;;6.20;0.93;;;;;;;2.28;67.91;96483.50;5053998;28;20064;-79
2022/02/06 05:37:04;;;;;;;3.13;1.00;;;;;;;2.27;67.84;96487.28;5054209;28;20404;-78
2022/02/06 05:39:31;;;;;;;6.78;1.33;;;;;;;2.30;67.69;96484.06;5054753;28;20044;-79
2022/02/06 05:41:57;;;;;;;4.85;1.15;;;;;;;2.28;67.77;96486.19;5053572;28;20475;-79
2022/02/06 05:44:24;;;;;;;4.70;1.10;;;;;;;2.31;67.78;96485.69;5053678;28;20052;-79
2022/02/06 05:46:50;;;;;;;4.25;2.00;;;;;;;2.32;67.27;96479.22;5054363;28;20052;-80
2022/02/06 05:49:18;;;;;;;3.50;1.10;;;;;;;2.40;67.48;96479.78;5053199;28;20056;-82
2022/02/06 05:51:46;;;;;;;3.42;0.95;;;;;;;2.41;67.22;96468.00;5054212;28;20052;-82
2022/02/06 05:54:13;;;;;;;2.88;0.90;;;;;;;2.43;66.97;96471.22;5053779;28;20512;-79
2022/02/06 05:56:40;;;;;;;3.70;1.00;;;;;;;2.49;66.69;96456.72;5054978;28;20503;-79
2022/02/06 05:59:06;;;;;;;5.43;0.93;;;;;;;2.48;66.77;96468.53;5054187;28;20048;-80
2022/02/06 06:01:33;;;;;;;4.25;1.20;;;;;;;2.50;66.63;96474.44;5054739;28;20052;-79
2022/02/06 06:03:59;;;;;;;7.63;1.00;;;;;;;2.52;66.30;96477.69;5055014;28;20049;-78
2022/02/06 06:06:27;;;;;;;5.10;1.00;;;;;;;2.53;66.22;96469.38;5053329;28;20049;-79
2022/02/06 06:08:53;;;;;;;7.45;1.40;;;;;;;2.56;66.21;96481.50;5055205;28;20045;-79
2022/02/06 06:11:20;;;;;;;4.40;1.15;;;;;;;2.59;65.96;96483.63;5053911;28;20045;-80
2022/02/06 06:13:46;;;;;;;3.70;1.00;;;;;;;2.60;66.04;96482.56;5055170;28;20041;-79
2022/02/06 06:16:13;;;;;;;7.03;1.05;;;;;;;2.60;66.37;96486.06;5054381;28;20045;-79
2022/02/06 06:18:39;;;;;;;5.53;0.98;;;;;;;2.59;66.21;96484.44;5053658;28;20048;-80
2022/02/06 06:21:06;;;;;;;4.30;1.10;;;;;;;2.63;65.81;96483.94;5052843;28;20045;-79
2022/02/06 06:23:41;;;;;;;4.07;0.93;;;;;;;2.65;65.51;96479.88;5053007;28;20045;-80
2022/02/06 06:26:08;;;;;;;2.03;0.70;;;;;;;2.68;65.60;96476.69;5052419;28;20045;-79
2022/02/06 06:28:34;;;;;;;4.05;0.95;;;;;;;2.70;65.32;96482.59;5053112;28;20415;-79
2022/02/06 06:31:01;;;;;;;6.13;1.23;;;;;;;2.70;65.42;96479.91;5054280;28;20033;-79
2022/02/06 06:33:27;;;;;;;2.05;0.75;;;;;;;2.67;65.06;96469.69;5053532;28;20052;-78
2022/02/06 06:35:54;;;;;;;4.35;0.70;;;;;;;2.70;65.38;96474.53;5053735;28;20540;-78
2022/02/06 06:38:20;;;;;;;3.85;1.02;;;;;;;2.70;65.26;96468.34;5053207;28;20052;-79
2022/02/06 06:40:48;;;;;;;3.60;0.80;;;;;;;2.74;65.09;96470.25;5053056;28;20041;-79
2022/02/06 06:43:15;;;;;;;5.60;0.90;;;;;;;2.72;64.89;96458.94;5052522;28;20045;-79
2022/02/06 06:45:41;;;;;;;6.85;0.70;;;;;;;2.76;64.45;96462.69;5051929;28;20099;-79
2022/02/06 06:48:08;;;;;;;4.38;0.77;;;;;;;2.76;64.23;96462.69;5053099;28;20052;-78
2022/02/06 06:50:34;;;;;;;2.45;0.70;;;;;;;2.81;64.27;96460.03;5053004;28;20056;-80
2022/02/06 06:53:02;;;;;;;4.68;0.80;;;;;;;2.86;63.37;96465.41;5053307;28;20048;-80
2022/02/06 06:55:30;;;;;;;2.33;0.80;;;;;;;2.91;63.62;96453.06;5053012;28;20076;-79
2022/02/06 06:58:07;;;;;;;3.65;0.90;;;;;;;2.85;63.65;96466.50;5052670;28;20040;-80
2022/02/06 07:00:40;;;;;;;4.15;0.90;;;;;;;2.90;63.49;96459.50;5052810;28;20396;-79
2022/02/06 07:03:07;;;;;;;1.98;0.70;;;;;;;2.90;63.43;96452.25;5052398;28;20106;-79
2022/02/06 07:05:33;;;;;;;2.78;0.63;;;;;;;2.93;63.51;96456.31;5052757;28;20053;-78
2022/02/06 07:08:00;;;;;;;5.07;0.90;;;;;;;2.93;63.13;96453.63;5052743;28;20052;-79
2022/02/06 07:10:26;;;;;;;4.35;1.13;;;;;;;2.92;63.80;96455.47;5051605;28;20045;-79
2022/02/06 07:12:53;;;;;;;4.65;0.80;;;;;;;2.94;63.72;96449.84;5052856;28;20052;-79
2022/02/06 07:15:21;;;;;;;3.00;0.75;;;;;;;2.97;63.40;96438.53;5052840;28;20052;-80
2022/02/06 07:17:48;;;;;;;4.25;0.68;;;;;;;2.99;63.13;96444.47;5053145;28;20518;-79
2022/02/06 07:20:14;;;;;;;3.25;0.70;;;;;;;3.00;62.88;96433.44;5052491;28;20584;-79
2022/02/06 07:22:44;;;;;;;5.45;0.90;;;;;;;3.02;63.05;96427.78;5052292;28;20045;-79
2022/02/06 07:25:10;;;;;;;4.43;0.75;;;;;;;3.01;62.82;96431.56;5051932;28;20049;-79
2022/02/06 07:27:39;;;;;;;4.10;0.75;;;;;;;3.02;63.45;96431.28;5052248;28;20052;-79
2022/02/06 07:30:08;;;;;;;2.00;0.68;;;;;;;3.04;63.27;96414.88;5052022;28;20128;-79
2022/02/06 07:32:38;;;;;;;3.85;0.73;;;;;;;3.04;63.37;96414.88;5051681;28;20045;-79
2022/02/06 07:35:07;;;;;;;3.15;0.80;;;;;;;3.06;63.09;96413.53;5051435;28;20060;-78
2022/02/06 07:37:33;;;;;;;4.15;0.88;;;;;;;3.05;63.14;96411.13;5052505;28;20045;-79
2022/02/06 07:40:00;;;;;;;2.60;0.80;;;;;;;3.07;62.91;96403.56;5051903;28;20045;-79
2022/02/06 07:42:26;;;;;;;2.53;0.63;;;;;;;3.11;62.30;96389.31;5051700;28;20036;-78
2022/02/06 07:44:53;;;;;;;1.70;0.52;;;;;;;3.15;62.49;96405.75;5054108;28;20055;-78
2022/02/06 07:47:22;;;;;;;3.80;0.68;;;;;;;3.15;62.42;96408.44;5052988;28;20064;-79
2022/02/06 07:49:52;;;;;;;4.97;0.75;;;;;;;3.15;62.53;96405.75;5051834;28;20037;-81
2022/02/06 07:52:20;;;;;;;3.00;0.57;;;;;;;3.16;62.59;96407.34;5051398;28;20057;-81
2022/02/06 07:54:47;;;;;;;4.60;1.00;;;;;;;3.20;62.70;96413.81;5052187;28;20045;-79
2022/02/06 07:57:14;;;;;;;3.45;0.88;;;;;;;3.22;62.39;96406.25;5051643;28;20146;-80
2022/02/06 07:59:41;;;;;;;4.32;0.93;;;;;;;3.26;61.99;96393.91;5051674;28;20045;-81
2022/02/06 08:02:08;;;;;;;2.63;0.75;;;;;;;3.24;61.76;96398.75;5051293;28;20057;-79
2022/02/06 08:04:35;;;;;;;3.60;0.90;;;;;;;3.27;61.77;96408.97;5052103;28;20068;-79
2022/02/06 08:07:04;;;;;;;2.10;0.57;;;;;;;3.30;61.84;96413.00;5052503;28;20070;-79
2022/02/06 08:09:45;;;;;;;3.92;0.60;;;;;;;3.32;61.80;96406.25;5052093;28;20048;-79
2022/02/06 08:12:12;;;;;;;5.47;0.95;;;;;;;3.38;61.52;96421.31;5051475;28;20057;-79
2022/02/06 08:14:52;;;;;;;2.63;0.70;;;;;;;3.46;60.68;96411.13;5051804;28;20466;-79
2022/02/06 08:17:24;;;;;;;6.25;0.80;;;;;;;3.55;60.42;96414.84;5052380;28;20150;-79
2022/02/06 08:19:51;;;;;;;2.20;0.75;;;;;;;3.59;60.59;96414.03;5052945;28;20064;-79
2022/02/06 08:22:19;;;;;;;3.50;0.88;;;;;;;3.66;60.44;96405.69;5052188;28;20056;-78
2022/02/06 08:24:47;;;;;;;3.90;0.90;;;;;;;3.79;60.26;96398.94;5052677;28;20041;-80
2022/02/06 08:27:14;;;;;;;2.60;0.52;;;;;;;3.92;59.87;96391.09;5054238;28;20049;-79
2022/02/06 08:29:44;;;;;;;6.57;1.00;;;;;;;4.02;59.50;96402.88;5052773;28;20594;-79
2022/02/06 08:32:10;;;;;;;2.50;0.68;;;;;;;4.23;58.42;96399.06;5053537;28;20068;-79
2022/02/06 08:34:37;;;;;;;3.83;0.70;;;;;;;4.22;58.12;96405.50;5052426;28;20045;-79
2022/02/06 08:37:05;;;;;;;4.20;0.80;;;;;;;4.26;58.25;96382.31;5052463;28;20401;-79
2022/02/06 08:39:33;;;;;;;3.03;0.77;;;;;;;4.24;57.58;96373.72;5052571;28;20049;-79
2022/02/06 08:41:59;;;;;;;5.45;0.90;;;;;;;4.23;58.76;96382.88;5053119;28;20041;-79
2022/02/06 08:44:26;;;;;;;5.40;0.90;;;;;;;4.23;58.00;96368.56;5052826;28;20058;-80
2022/02/06 08:46:53;;;;;;;4.65;0.65;;;;;;;4.20;58.07;96364.56;5052689;28;20076;-79
2022/02/06 08:49:20;;;;;;;3.88;0.60;;;;;;;4.26;57.81;96355.38;5051519;28;20052;-79
2022/02/06 08:51:47;;;;;;;3.40;0.75;;;;;;;4.30;57.55;96356.44;5051181;28;20052;-79
2022/02/06 08:54:14;;;;;;;4.68;0.90;;;;;;;4.34;57.24;96341.31;5050968;28;20045;-79
2022/02/06 08:56:42;;;;;;;3.15;0.70;;;;;;;4.48;57.33;96329.91;5051259;28;20110;-79
2022/02/06 08:59:09;;;;;;;1.90;0.75;;;;;;;4.48;57.84;96325.31;5051239;28;20064;-78
2022/02/06 09:01:36;;;;;;;7.07;1.00;;;;;;;4.59;57.24;96315.25;5051544;28;20515;-78
2022/02/06 09:04:03;;;;;;;1.52;0.55;;;;;;;4.62;57.10;96306.63;5051245;28;20045;-77
2022/02/06 09:06:30;;;;;;;5.07;1.02;;;;;;;4.68;56.88;96305.50;5052011;28;20045;-79
2022/02/06 09:08:58;;;;;;;6.25;1.02;;;;;;;4.67;56.52;96302.00;5053284;28;20079;-79
2022/02/06 09:11:26;;;;;;;4.65;1.05;;;;;;;4.70;56.86;96296.03;5053809;28;20047;-79
2022/02/06 09:13:55;;;;;;;3.13;0.77;;;;;;;4.67;56.61;96291.19;5055296;28;20124;-79
2022/02/06 09:16:22;;;;;;;7.18;0.95;;;;;;;4.63;56.66;96289.34;5054196;28;20579;-79
2022/02/06 09:18:49;;;;;;;5.25;1.00;;;;;;;4.68;56.75;96297.41;5055259;28;20045;-79
2022/02/06 09:21:16;;;;;;;6.22;1.10;;;;;;;4.67;56.42;96285.81;5054778;28;20053;-79
2022/02/06 09:23:43;;;;;;;2.22;0.82;;;;;;;4.64;56.52;96288.25;5054944;28;20430;-79
2022/02/06 09:26:09;;;;;;;4.53;0.90;;;;;;;4.64;56.71;96274.75;5055067;28;20408;-79
2022/02/06 09:28:36;;;;;;;7.47;1.00;;;;;;;4.67;56.46;96279.59;5056024;28;20049;-78
2022/02/06 09:31:04;;;;;;;3.95;0.80;;;;;;;4.72;56.21;96276.88;5055181;28;20048;-78
2022/02/06 09:35:56;;;;;;;5.80;1.10;;;;;;;4.70;55.90;96268.25;5055245;28;20044;-79
2022/02/06 09:38:23;;;;;;;4.82;1.27;;;;;;;4.72;56.28;96266.09;5054574;28;20052;-80
2022/02/06 09:40:52;;;;;;;3.20;0.80;;;;;;;4.67;56.41;96264.22;5054175;28;20689;-79
2022/02/06 09:43:19;;;;;;;7.10;1.10;;;;;;;4.70;56.08;96268.25;5054808;28;20041;-79
2022/02/06 09:45:47;;;;;;;3.55;0.93;;;;;;;4.72;56.82;96255.28;5054482;28;20041;-78
2022/02/06 09:48:16;;;;;;;1.92;0.70;;;;;;;4.73;55.92;96259.59;5054836;28;20419;-78
2022/02/06 09:50:44;;;;;;;2.13;0.60;;;;;;;4.76;54.72;96267.13;5054343;28;20045;-80
2022/02/06 09:53:10;;;;;;;3.10;0.57;;;;;;;4.71;54.92;96253.69;5054114;28;20052;-79
2022/02/06 09:55:37;;;;;;;1.52;0.63;;;;;;;4.74;54.93;96258.50;5054203;28;20049;-78
2022/02/06 09:58:17;;;;;;;3.08;0.70;;;;;;;4.81;55.36;96264.38;5054388;28;20140;-78
2022/02/06 10:00:45;;;;;;;3.42;0.80;;;;;;;4.87;55.11;96257.84;5054485;28;20552;-79
2022/02/06 10:03:13;;;;;;;2.03;0.80;;;;;;;5.08;54.21;96260.38;5053387;28;20064;-80
2022/02/06 10:05:44;;;;;;;3.58;0.70;;;;;;;5.22;53.82;96256.72;5054033;28;20049;-79
2022/02/06 10:08:15;;;;;;;3.17;0.77;;;;;;;5.25;54.02;96263.44;5053359;28;20052;-79
2022/02/06 10:10:49;;;;;;;5.43;0.90;;;;;;;5.31;53.49;96264.97;5053060;28;20531;-79
2022/02/06 10:13:16;;;;;;;2.30;0.82;;;;;;;5.36;53.56;96246.03;5052964;28;20045;-78
2022/02/06 10:15:42;;;;;;;2.42;0.70;;;;;;;5.43;54.27;96249.19;5053933;28;20044;-79
2022/02/06 10:18:10;;;;;;;2.78;0.70;;;;;;;5.48;53.44;96246.44;5053480;28;20056;-79
2022/02/06 10:20:45;;;;;;;4.90;0.90;;;;;;;5.54;52.88;96243.69;5052390;28;20041;-78
2022/02/06 10:23:21;;;;;;;3.25;0.60;;;;;;;5.58;53.19;96247.38;5053684;28;20041;-79
2022/02/06 10:25:50;;;;;;;4.70;0.80;;;;;;;5.66;52.85;96235.97;5053515;28;20110;-79
2022/02/06 10:28:34;;;;;;;3.88;1.20;;;;;;;5.65;53.52;96234.34;5053720;28;20495;-79
2022/02/06 10:31:04;;;;;;;3.47;0.82;;;;;;;5.98;52.99;96222.59;5055445;28;20145;-79
2022/02/06 10:33:43;;;;;;;2.90;0.95;;;;;;;6.15;52.58;96215.88;5053517;28;20048;-80
2022/02/06 10:36:12;;;;;;;1.52;0.57;;;;;;;6.21;52.29;96203.88;5053953;28;20048;-80
2022/02/06 10:38:38;;;;;;;2.33;0.70;;;;;;;6.32;52.54;96194.53;5054210;28;20052;-79
2022/02/06 10:41:08;;;;;;;7.25;0.85;;;;;;;6.47;52.83;96202.41;5053743;28;20052;-79
2022/02/06 10:43:37;;;;;;;4.10;0.95;;;;;;;6.19;52.60;96177.13;5053768;28;20083;-79
2022/02/06 10:46:11;;;;;;;6.35;1.52;;;;;;;6.12;52.25;96178.63;5052616;28;20125;-78
2022/02/06 10:48:46;;;;;;;4.43;0.60;;;;;;;6.24;51.47;96168.16;5052647;28;20041;-78
2022/02/06 10:51:43;;;;;;;3.38;0.98;;;;;;;6.29;52.49;96162.66;5052295;28;20056;-79
2022/02/06 10:54:15;;;;;;;3.53;1.30;;;;;;;6.14;52.34;96154.78;5052593;28;20488;-79
2022/02/06 10:57:03;;;;;;;4.32;1.05;;;;;;;5.97;52.16;96150.72;5052484;28;20406;-79
2022/02/06 10:59:37;;;;;;;1.63;0.63;;;;;;;6.09;52.93;96141.34;5052808;28;20041;-79
2022/02/06 11:02:07;;;;;;;2.75;1.08;;;;;;;6.20;52.65;96126.56;5052767;28;20068;-79
2022/02/06 11:04:36;;;;;;;4.13;0.80;;;;;;;6.29;52.21;96119.41;5052589;28;20049;-79
2022/02/06 11:07:18;;;;;;;2.90;0.80;;;;;;;6.37;51.94;96104.38;5052120;28;20458;-76
2022/02/06 11:09:46;;;;;;;2.10;0.90;;;;;;;6.30;52.01;96093.94;5052789;28;20102;-79
2022/02/06 11:12:15;;;;;;;4.03;0.73;;;;;;;6.36;52.49;96089.25;5054278;28;20044;-79
2022/02/06 11:14:59;;;;;;;3.08;1.00;;;;;;;6.39;51.16;96070.53;5052603;28;20040;-79
2022/02/06 11:17:27;;;;;;;;;;;;;;;6.37;51.48;96067.34;5052587;28;20090;-79
2022/02/06 11:19:59;;;;;;;1.38;0.57;;;;;;;6.41;51.24;96056.72;5051207;28;19920;-80
2022/02/06 11:22:27;;;;;;;2.83;0.60;;;;;;;6.39;52.47;96054.31;5051995;28;20491;-79
2022/02/06 11:24:54;;;;;;;1.77;0.80;;;;;;;6.37;50.79;96029.47;5052196;28;20087;-78
2022/02/06 11:27:21;;;;;;;1.92;0.60;;;;;;;6.43;50.76;96012.06;5050683;28;20053;-79
2022/02/06 11:29:48;;;;;;;1.42;0.60;;;;;;;6.49;50.87;96027.06;5051512;28;20056;-81
2022/02/06 11:32:15;;;;;;;2.78;0.70;;;;;;;6.55;50.63;96016.97;5050821;28;20053;-78
2022/02/06 11:34:43;;;;;;;4.85;0.65;;;;;;;6.48;51.72;96003.84;5051643;28;20056;-79
2022/02/06 11:45:56;;;;;;;1.80;0.70;;;;;;;6.38;52.40;96014.84;5052193;28;20554;-79
2022/02/06 11:48:26;;;;;;;3.10;0.80;;;;;;;6.39;51.46;95999.41;5051567;28;20053;-80
2022/02/06 11:50:55;;;;;;;2.92;0.60;;;;;;;6.43;51.31;96003.94;5051639;28;20046;-78
2022/02/06 11:53:29;;;;;;;3.92;0.73;;;;;;;6.40;50.33;95995.63;5051121;28;20056;-79
2022/02/06 11:55:58;;;;;;;7.78;0.82;;;;;;;6.47;49.93;95986.00;5050892;28;20045;-78
2022/02/06 11:58:28;;;;;;;4.15;0.75;;;;;;;6.45;50.28;95974.69;5050229;28;20132;-78
2022/02/06 12:01:24;;;;;;;1.75;0.70;;;;;;;6.46;50.02;95975.47;5049655;28;20041;-78
2022/02/06 12:04:00;;;;;;;4.68;0.88;;;;;;;6.46;47.95;95946.53;5050656;28;20048;-79
2022/02/06 12:06:29;;;;;;;4.30;0.68;;;;;;;6.48;49.82;95968.69;5050557;28;20037;-80
2022/02/06 12:09:16;;;;;;;3.60;0.80;;;;;;;6.50;48.98;95974.56;5050476;28;20094;-80
2022/02/06 12:12:21;;;;;;;3.10;0.77;;;;;;;6.48;49.09;95955.16;5049863;28;20136;-79
2022/02/06 12:15:09;;;;;;;;;;;;;;;6.52;48.28;95945.34;5050849;28;20041;-78
2022/02/06 12:17:45;;;;;;;6.45;1.15;;;;;;;6.48;48.29;95928.09;5050358;28;19920;-81
2022/02/06 12:20:13;;;;;;;1.38;0.60;;;;;;;6.51;48.13;95922.06;5050283;28;20118;-80
2022/02/06 12:22:43;;;;;;;4.15;0.80;;;;;;;6.45;47.49;95917.06;5051076;28;20043;-80
2022/02/06 12:25:21;;;;;;;1.25;0.60;;;;;;;6.50;47.69;95925.88;5049893;28;20049;-80
2022/02/06 12:27:49;;;;;;;4.30;0.80;;;;;;;6.56;48.70;95918.47;5030601;28;20428;-79
2022/02/06 12:30:24;;;;;;;1.52;0.70;;;;;;;6.56;47.63;95925.78;5030769;28;20054;-79
2022/02/06 12:32:50;;;;;;;4.38;0.88;;;;;;;6.54;48.64;95921.47;5029219;28;20042;-80
2022/02/06 12:38:05;;;;;;;1.50;0.63;;;;;;;6.60;48.16;95911.34;4996290;28;20579;-78
2022/02/06 12:40:32;;;;;;;1.58;0.50;;;;;;;6.72;48.50;95908.91;5031956;28;20133;-79
2022/02/06 12:43:01;;;;;;;2.50;0.80;;;;;;;6.75;48.74;95912.94;5049360;28;20048;-80
2022/02/06 12:45:31;;;;;;;4.07;0.73;;;;;;;6.73;49.40;95897.00;5049760;28;20517;-80
2022/02/06 12:48:00;;;;;;;2.53;0.82;;;;;;;6.71;49.26;95884.88;5049984;28;20048;-79
2022/02/06 12:50:29;;;;;;;1.35;0.60;;;;;;;6.76;48.40;95879.34;5049134;28;20041;-80
2022/02/06 12:52:56;;;;;;;2.47;0.70;;;;;;;6.71;48.52;95895.69;5049782;28;20053;-80
2022/02/06 12:55:28;;;;;;;1.70;0.63;;;;;;;6.63;48.33;95878.28;5049156;28;20063;-80
2022/02/06 12:57:55;;;;;;;2.25;0.70;;;;;;;6.58;48.87;95872.16;5050424;28;20051;-80
2022/02/06 13:00:47;;;;;;;1.88;0.40;;;;;;;6.52;49.35;95858.78;5049181;28;20055;-80
2022/02/06 13:03:20;;;;;;;1.38;0.60;;;;;;;6.48;50.59;95846.97;5049517;28;20124;-80
2022/02/06 13:05:50;;;;;;;;;;;;;;;6.51;50.69;95838.22;5050120;28;20143;-80
2022/02/06 13:08:17;;;;;;;3.00;0.70;;;;;;;6.50;50.80;95828.50;5049239;28;19974;-80
2022/02/06 13:10:50;;;;;;;1.67;0.50;;;;;;;6.48;50.48;95830.72;5049327;28;20124;-80
2022/02/06 13:13:22;;;;;;;1.77;0.50;;;;;;;6.45;50.69;95830.53;5047963;28;20107;-80
2022/02/06 13:15:59;;;;;;;2.33;0.80;;;;;;;6.42;51.32;95820.31;5049425;28;20057;-80
2022/02/06 13:18:54;;;;;;;1.90;0.80;;;;;;;6.42;51.61;95826.53;5049241;28;20068;-81
2022/02/06 13:21:32;;;;;;;3.55;0.63;;;;;;;6.37;51.64;95802.31;5049256;28;20051;-80